Terminal Aerodrome Forecast
Issued by NWS Albany, NY

Home | Current Version | Previous Version | Text Only | Print | Product List | Glossary On
Versions: 1 2 3 4 5 6 7 8 9 10 11 12 13
000
FTUS41 KALY 232327
TAFGFL
TAF
KGFL 232327Z 2400/2424 21010KT P6SM SCT060
     FM240600 VRB03KT P6SM BKN025
     FM240800 07005KT 2SM BR VCSH SCT007 OVC015
     FM241600 16003KT 5SM BR SCT015 OVC025
     FM242000 19008KT P6SM SCT025 OVC035=

USA.gov is the U.S. government's official web portal to all federal, state and local government web resources and services.